createdAt,value
2019-04-20T00:00:56.874Z,103222.23
2019-04-20T00:03:32.223Z,103218.31
2019-04-20T00:05:57.220Z,103218.36
2019-04-20T00:08:29.611Z,103211.03
2019-04-20T00:11:04.131Z,103210.35
2019-04-20T00:13:36.628Z,103212.91
2019-04-20T00:15:55.779Z,103208.50
2019-04-20T00:18:26.871Z,103208.70
2019-04-20T00:21:00.272Z,103210.05
2019-04-20T00:23:45.200Z,103218.70
2019-04-20T00:26:24.910Z,103203.27
2019-04-20T00:29:08.677Z,103207.78
2019-04-20T00:31:29.707Z,103206.25
2019-04-20T00:33:55.860Z,103210.52
2019-04-20T00:36:16.257Z,103205.56
2019-04-20T00:38:50.905Z,103211.62
2019-04-20T00:41:17.279Z,103207.96
2019-04-20T00:43:45.606Z,103199.55
2019-04-20T00:46:22.195Z,103205.95
2019-04-20T00:48:51.929Z,103214.98
2019-04-20T00:51:36.676Z,103209.95
2019-04-20T00:53:48.374Z,103210.62
2019-04-20T00:56:14.118Z,103215.95
2019-04-20T00:58:52.287Z,103217.23
2019-04-20T01:01:31.149Z,103212.09
2019-04-20T01:03:58.449Z,103220.02
2019-04-20T01:06:46.500Z,103217.45
2019-04-20T01:09:01.604Z,103222.19
2019-04-20T01:11:35.508Z,103228.59
2019-04-20T01:14:04.478Z,103224.77
2019-04-20T01:16:41.242Z,103230.63
2019-04-20T01:18:59.601Z,103221.78
2019-04-20T01:21:30.428Z,103223.62
2019-04-20T01:24:01.696Z,103222.55
2019-04-20T01:26:28.269Z,103214.44
2019-04-20T01:29:08.905Z,103216.50
2019-04-20T01:31:36.152Z,103221.23
2019-04-20T01:34:06.275Z,103221.93
2019-04-20T01:36:47.917Z,103219.77
2019-04-20T01:39:12.517Z,103222.08
2019-04-20T01:41:28.510Z,103217.59
2019-04-20T01:43:56.821Z,103222.47
2019-04-20T01:46:27.995Z,103225.73
2019-04-20T01:48:58.260Z,103224.78
2019-04-20T01:51:30.680Z,103225.59
2019-04-20T01:54:12.025Z,103229.27
2019-04-20T01:56:42.106Z,103229.41
2019-04-20T01:59:16.455Z,103228.16
2019-04-20T02:01:36.183Z,103228.37
2019-04-20T02:04:20.301Z,103230.75
2019-04-20T02:06:50.447Z,103227.70
2019-04-20T02:09:19.099Z,103224.98
2019-04-20T02:11:47.275Z,103225.72
2019-04-20T02:14:26.623Z,103234.02
2019-04-20T02:16:49.575Z,103228.17
2019-04-20T02:19:32.127Z,103232.52
2019-04-20T02:22:01.616Z,103230.95
2019-04-20T02:24:16.022Z,103232.04
2019-04-20T02:26:45.093Z,103234.42
2019-04-20T02:29:37.472Z,103230.45
2019-04-20T02:34:47.819Z,103236.64
2019-04-20T02:37:24.591Z,103229.84
2019-04-20T02:39:57.960Z,103233.85
2019-04-20T02:42:31.496Z,103229.05
2019-04-20T02:45:00.727Z,103233.13
2019-04-20T02:47:23.990Z,103235.30
2019-04-20T02:49:50.764Z,103224.96
2019-04-20T02:52:32.674Z,103215.68
2019-04-20T02:54:54.921Z,103215.68
2019-04-20T02:57:40.433Z,103225.52
2019-04-20T03:02:13.370Z,103226.11
2019-04-20T03:04:34.516Z,103218.81
2019-04-20T03:07:10.181Z,103218.86
2019-04-20T03:09:41.601Z,103210.34
2019-04-20T03:12:21.622Z,103217.50
2019-04-20T03:14:35.279Z,103209.86
2019-04-20T03:17:18.590Z,103213.94
2019-04-20T03:19:37.653Z,103219.98
2019-04-20T03:22:19.166Z,103221.81
2019-04-20T03:24:46.889Z,103219.64
2019-04-20T03:27:07.978Z,103223.95
2019-04-20T03:29:41.045Z,103212.13
2019-04-20T03:32:53.866Z,103216.70
2019-04-20T03:37:28.066Z,103208.97
2019-04-20T03:39:40.472Z,103209.82
2019-04-20T03:41:58.702Z,103208.06
2019-04-20T03:44:30.663Z,103198.52
2019-04-20T03:47:01.319Z,103201.87
2019-04-20T03:49:51.897Z,103204.30
2019-04-20T03:52:31.066Z,103206.02
2019-04-20T03:55:01.393Z,103208.20
2019-04-20T03:57:43.738Z,103209.47
2019-04-20T04:00:26.376Z,103217.28
2019-04-20T04:03:31.832Z,103214.42
2019-04-20T04:05:48.117Z,103211.83
2019-04-20T04:08:12.302Z,103214.70
2019-04-20T04:10:55.710Z,103204.98
2019-04-20T04:13:18.765Z,103209.05
2019-04-20T04:15:51.931Z,103215.41
2019-04-20T04:18:26.202Z,103212.70
2019-04-20T04:20:56.623Z,103225.12
2019-04-20T04:23:33.887Z,103217.31
2019-04-20T04:26:05.860Z,103209.72
2019-04-20T04:28:37.328Z,103209.72
2019-04-20T04:31:10.954Z,103216.75
2019-04-20T04:33:54.877Z,103205.38
2019-04-20T04:36:00.165Z,103218.59
2019-04-20T04:38:44.674Z,103217.19
2019-04-20T04:41:16.977Z,103211.44
2019-04-20T04:43:37.239Z,103227.08
2019-04-20T04:45:48.900Z,103227.91
2019-04-20T04:48:22.151Z,103229.08
2019-04-20T04:50:54.519Z,103235.16
2019-04-20T04:53:28.511Z,103231.92
2019-04-20T04:55:54.942Z,103236.80
2019-04-20T04:58:17.333Z,103235.33
2019-04-20T05:00:46.790Z,103235.33
2019-04-20T05:03:37.556Z,103230.56
2019-04-20T05:06:06.490Z,103223.91
2019-04-20T05:08:24.136Z,103228.55
2019-04-20T05:10:47.600Z,103230.90
2019-04-20T05:13:15.961Z,103240.02
2019-04-20T05:15:58.251Z,103240.02
2019-04-20T05:18:41.561Z,103243.26
2019-04-20T05:21:05.810Z,103236.37
2019-04-20T05:23:31.949Z,103237.59
2019-04-20T05:26:10.162Z,103238.72
2019-04-20T05:28:32.546Z,103231.25
2019-04-20T05:30:55.903Z,103226.48
2019-04-20T05:33:33.056Z,103237.61
2019-04-20T05:36:16.348Z,103243.47
2019-04-20T05:38:52.152Z,103232.19
2019-04-20T05:41:11.480Z,103240.90
2019-04-20T05:43:41.432Z,103237.95
2019-04-20T05:46:22.353Z,103236.29
2019-04-20T05:48:50.858Z,103238.83
2019-04-20T05:51:25.608Z,103240.02
2019-04-20T05:53:54.772Z,103240.02
2019-04-20T05:56:17.286Z,103240.02
2019-04-20T05:58:49.425Z,103243.77
2019-04-20T06:01:22.870Z,103229.39
2019-04-20T06:03:45.755Z,103236.92
2019-04-20T06:06:14.096Z,103241.73
2019-04-20T06:08:53.815Z,103235.81
2019-04-20T06:11:23.495Z,103244.14
2019-04-20T06:13:53.491Z,103241.45
2019-04-20T06:16:45.825Z,103234.21
2019-04-20T06:19:20.137Z,103244.09
2019-04-20T06:22:14.896Z,103241.07
2019-04-20T06:24:30.854Z,103236.92
2019-04-20T06:29:18.368Z,103241.97
2019-04-20T06:31:51.911Z,103243.98
2019-04-20T06:36:57.159Z,103251.55
2019-04-20T06:44:32.136Z,103247.06
2019-04-20T06:47:04.137Z,103255.14
2019-04-20T06:52:09.799Z,103249.58
2019-04-20T06:54:52.447Z,103242.34
2019-04-20T06:57:29.181Z,103244.88
2019-04-20T06:59:53.520Z,103242.54
2019-04-20T07:02:29.638Z,103252.52
2019-04-20T07:07:27.709Z,103247.19
2019-04-20T07:12:16.824Z,103245.09
2019-04-20T07:14:42.733Z,103251.02
2019-04-20T07:17:45.581Z,103244.32
2019-04-20T07:20:10.155Z,103246.45
2019-04-20T07:22:49.254Z,103242.86
2019-04-20T07:25:16.093Z,103244.15
2019-04-20T07:27:50.796Z,103242.20
2019-04-20T07:30:29.895Z,103250.18
2019-04-20T07:32:52.603Z,103246.78
2019-04-20T07:35:14.046Z,103242.81
2019-04-20T07:40:34.737Z,103242.16
2019-04-20T07:42:53.825Z,103243.98
2019-04-20T07:45:21.128Z,103241.05
2019-04-20T07:47:57.130Z,103250.34
2019-04-20T07:50:12.993Z,103248.08
2019-04-20T07:52:38.655Z,103243.34
2019-04-20T07:55:33.998Z,103241.53
2019-04-20T07:57:45.146Z,103244.19
2019-04-20T08:00:20.824Z,103240.25
2019-04-20T08:03:13.007Z,103240.52
2019-04-20T08:05:32.367Z,103241.81
2019-04-20T08:07:56.833Z,103239.70
2019-04-20T08:10:34.138Z,103241.39
2019-04-20T08:13:09.819Z,103243.73
2019-04-20T08:15:46.808Z,103240.11
2019-04-20T08:18:07.433Z,103238.17
2019-04-20T08:20:36.881Z,103246.16
2019-04-20T08:23:09.268Z,103242.52
2019-04-20T08:25:27.672Z,103245.23
2019-04-20T08:28:15.378Z,103243.89
2019-04-20T08:31:02.450Z,103235.26
2019-04-20T08:33:36.449Z,103241.64
2019-04-20T08:36:11.056Z,103240.91
2019-04-20T08:39:00.857Z,103237.36
2019-04-20T08:41:03.305Z,103239.25
2019-04-20T08:43:52.228Z,103237.98
2019-04-20T08:46:10.356Z,103241.14
2019-04-20T08:48:39.334Z,103229.97
2019-04-20T08:51:07.032Z,103233.95
2019-04-20T08:53:36.874Z,103230.80
2019-04-20T08:56:00.283Z,103233.77
2019-04-20T08:58:15.986Z,103232.53
2019-04-20T09:00:50.119Z,103234.89
2019-04-20T09:03:21.971Z,103226.61
2019-04-20T09:05:57.001Z,103221.18
2019-04-20T09:08:21.291Z,103224.03
2019-04-20T09:11:02.685Z,103219.06
2019-04-20T09:13:25.974Z,103217.50
2019-04-20T09:15:44.716Z,103212.02
2019-04-20T09:18:39.062Z,103217.92
2019-04-20T09:21:07.723Z,103206.73
2019-04-20T09:23:46.877Z,103200.84
2019-04-20T09:26:20.214Z,103208.13
2019-04-20T09:28:43.918Z,103206.80
2019-04-20T09:31:36.898Z,103200.91
2019-04-20T09:34:42.708Z,103209.98
2019-04-20T09:36:47.222Z,103200.06
2019-04-20T09:39:11.517Z,103199.02
2019-04-20T09:41:59.967Z,103205.82
2019-04-20T09:44:13.418Z,103198.31
2019-04-20T09:46:46.029Z,103197.17
2019-04-20T09:49:20.153Z,103199.38
2019-04-20T09:51:57.704Z,103192.70
2019-04-20T09:54:32.330Z,103188.75
2019-04-20T09:57:03.535Z,103189.72
2019-04-20T09:59:28.407Z,103191.69
2019-04-20T10:01:46.832Z,103190.25
2019-04-20T10:04:11.261Z,103190.09
2019-04-20T10:06:39.501Z,103187.11
2019-04-20T10:09:09.426Z,103186.44
2019-04-20T10:11:40.821Z,103189.63
2019-04-20T10:14:08.245Z,103185.33
2019-04-20T10:16:37.749Z,103186.56
2019-04-20T10:19:08.735Z,103182.20
2019-04-20T10:21:36.074Z,103190.88
2019-04-20T10:24:04.306Z,103183.73
2019-04-20T10:26:32.505Z,103181.88
2019-04-20T10:29:01.532Z,103182.03
2019-04-20T10:31:30.742Z,103177.82
2019-04-20T10:33:59.751Z,103173.16
2019-04-20T10:36:47.935Z,103174.77
2019-04-20T10:39:18.453Z,103169.67
2019-04-20T10:41:51.270Z,103173.14
2019-04-20T10:44:16.778Z,103175.58
2019-04-20T10:46:45.289Z,103172.88
2019-04-20T10:49:15.314Z,103168.98
2019-04-20T10:51:44.009Z,103165.53
2019-04-20T10:54:12.239Z,103166.92
2019-04-20T10:56:41.468Z,103167.28
2019-04-20T10:59:09.830Z,103169.16
2019-04-20T11:01:38.251Z,103164.51
2019-04-20T11:04:06.701Z,103168.38
2019-04-20T11:06:34.988Z,103164.12
2019-04-20T11:09:04.653Z,103166.20
2019-04-20T11:11:34.181Z,103169.79
2019-04-20T11:14:11.789Z,103160.88
2019-04-20T11:16:33.213Z,103156.39
2019-04-20T11:19:03.166Z,103161.23
2019-04-20T11:21:32.353Z,103162.31
2019-04-20T11:24:00.580Z,103154.41
2019-04-20T11:26:29.187Z,103147.82
2019-04-20T11:28:57.975Z,103153.02
2019-04-20T11:31:35.661Z,103144.62
2019-04-20T11:33:56.307Z,103139.95
2019-04-20T11:36:25.315Z,103139.44
2019-04-20T11:38:54.422Z,103142.73
2019-04-20T11:41:26.107Z,103139.05
2019-04-20T11:43:53.799Z,103139.78
2019-04-20T11:46:22.813Z,103138.16
2019-04-20T11:48:51.829Z,103139.83
2019-04-20T11:51:21.425Z,103125.41
2019-04-20T11:53:50.180Z,103127.75
2019-04-20T11:56:23.999Z,103119.48
2019-04-20T11:58:49.327Z,103116.34
2019-04-20T12:01:23.411Z,103122.88
2019-04-20T12:03:58.428Z,103116.06
2019-04-20T12:06:21.066Z,103113.25
2019-04-20T12:08:49.335Z,103109.28
2019-04-20T12:11:26.571Z,103108.21
2019-04-20T12:13:48.992Z,103100.56
2019-04-20T12:16:17.377Z,103104.48
2019-04-20T12:18:46.427Z,103109.28
2019-04-20T12:21:14.814Z,103100.99
2019-04-20T12:23:44.544Z,103115.56
2019-04-20T12:26:13.113Z,103104.32
2019-04-20T12:28:41.713Z,103102.77
2019-04-20T12:31:13.722Z,103105.19
2019-04-20T12:33:40.250Z,103103.73
2019-04-20T12:36:10.498Z,103098.97
2019-04-20T12:38:39.133Z,103104.87
2019-04-20T12:41:09.539Z,103106.10
2019-04-20T12:43:38.075Z,103105.23
2019-04-20T12:46:07.546Z,103106.27
2019-04-20T12:48:35.899Z,103101.33
2019-04-20T12:51:04.169Z,103099.36
2019-04-20T12:53:32.809Z,103098.56
2019-04-20T12:56:02.303Z,103096.39
2019-04-20T12:58:30.692Z,103091.83
2019-04-20T13:01:00.429Z,103101.36
2019-04-20T13:03:29.764Z,103089.05
2019-04-20T13:05:58.289Z,103097.87
2019-04-20T13:08:33.630Z,103099.27
2019-04-20T13:11:00.621Z,103085.87
2019-04-20T13:13:34.549Z,103089.88
2019-04-20T13:16:14.322Z,103091.41
2019-04-20T13:18:45.446Z,103084.09
2019-04-20T13:21:13.676Z,103083.25
2019-04-20T13:23:42.743Z,103076.99
2019-04-20T13:26:12.730Z,103070.95
2019-04-20T13:28:41.319Z,103071.57
2019-04-20T13:31:09.568Z,103066.09
2019-04-20T13:33:39.082Z,103067.86
2019-04-20T13:36:08.122Z,103067.20
2019-04-20T13:38:36.550Z,103064.95
2019-04-20T13:41:06.184Z,103054.09
2019-04-20T13:43:35.503Z,103054.59
2019-04-20T13:46:04.943Z,103054.55
2019-04-20T13:48:33.134Z,103044.07
2019-04-20T13:51:02.375Z,103042.23
2019-04-20T13:53:30.606Z,103042.90
2019-04-20T13:55:59.263Z,103044.49
2019-04-20T13:58:47.796Z,103040.48
2019-04-20T14:01:35.391Z,103034.08
2019-04-20T14:04:14.842Z,103025.33
2019-04-20T14:06:43.559Z,103033.84
2019-04-20T14:09:12.079Z,103024.24
2019-04-20T14:11:41.367Z,103023.42
2019-04-20T14:14:10.846Z,103030.34
2019-04-20T14:16:39.090Z,103031.52
2019-04-20T14:19:07.542Z,103025.27
2019-04-20T14:21:36.392Z,103019.52
2019-04-20T14:24:04.875Z,103022.13
2019-04-20T14:26:36.094Z,103015.94
2019-04-20T14:29:03.278Z,103017.58
2019-04-20T14:31:32.248Z,103014.03
2019-04-20T14:34:00.410Z,103010.23
2019-04-20T14:36:28.837Z,103009.91
2019-04-20T14:38:58.214Z,103006.02
2019-04-20T14:41:26.495Z,103005.66
2019-04-20T14:43:55.285Z,103000.83
2019-04-20T14:46:26.168Z,102999.37
2019-04-20T14:48:54.624Z,102998.00
2019-04-20T14:51:23.797Z,102996.30
2019-04-20T14:53:52.055Z,102999.37
2019-04-20T14:56:20.256Z,102997.33
2019-04-20T14:59:01.955Z,103002.24
2019-04-20T15:01:34.713Z,102992.81
2019-04-20T15:04:09.074Z,102991.88
2019-04-20T15:06:36.230Z,102987.17
2019-04-20T15:09:03.818Z,102989.50
2019-04-20T15:11:32.627Z,102982.41
2019-04-20T15:14:00.813Z,102978.69
2019-04-20T15:16:29.001Z,102972.04
2019-04-20T15:18:59.892Z,102965.63
2019-04-20T15:21:35.740Z,102958.22
2019-04-20T15:24:03.981Z,102957.20
2019-04-20T15:26:32.170Z,102963.91
2019-04-20T15:29:00.384Z,102957.66
2019-04-20T15:31:28.582Z,102958.18
2019-04-20T15:33:57.123Z,102957.52
2019-04-20T15:36:26.282Z,102951.30
2019-04-20T15:38:54.462Z,102961.16
2019-04-20T15:41:23.136Z,102952.80
2019-04-20T15:43:51.329Z,102961.78
2019-04-20T15:46:19.541Z,102953.08
2019-04-20T15:48:48.072Z,102946.98
2019-04-20T15:51:17.333Z,102947.13
2019-04-20T15:53:45.669Z,102939.64
2019-04-20T15:56:14.465Z,102945.11
2019-04-20T15:58:44.143Z,102939.09
2019-04-20T16:01:12.472Z,102935.03
2019-04-20T16:03:48.053Z,102935.54
2019-04-20T16:06:17.083Z,102933.88
2019-04-20T16:08:48.231Z,102931.10
2019-04-20T16:11:17.317Z,102933.80
2019-04-20T16:13:50.011Z,102935.66
2019-04-20T16:16:16.210Z,102936.09
2019-04-20T16:18:45.272Z,102933.41
2019-04-20T16:21:21.899Z,102935.51
2019-04-20T16:23:46.376Z,102928.90
2019-04-20T16:26:25.890Z,102926.05
2019-04-20T16:28:55.453Z,102922.25
2019-04-20T16:31:24.544Z,102921.53
2019-04-20T16:33:55.569Z,102919.91
2019-04-20T16:36:22.913Z,102922.02
2019-04-20T16:38:51.206Z,102921.55
2019-04-20T16:41:20.163Z,102919.75
2019-04-20T16:43:49.887Z,102923.84
2019-04-20T16:46:22.077Z,102929.64
2019-04-20T16:48:48.516Z,102932.74
2019-04-20T16:51:16.837Z,102929.80
2019-04-20T16:53:45.700Z,102928.86
2019-04-20T16:56:16.102Z,102930.20
2019-04-20T16:58:44.127Z,102924.25
2019-04-20T17:01:13.650Z,102920.03
2019-04-20T17:03:51.874Z,102921.31
2019-04-20T17:06:11.915Z,102918.22
2019-04-20T17:08:42.792Z,102915.96
2019-04-20T17:11:10.028Z,102915.43
2019-04-20T17:13:43.834Z,102921.58
2019-04-20T17:16:08.252Z,102917.97
2019-04-20T17:18:37.404Z,102915.17
2019-04-20T17:21:14.068Z,102908.56
2019-04-20T17:23:35.644Z,102905.47
2019-04-20T17:26:04.904Z,102901.27
2019-04-20T17:28:42.784Z,102904.53
2019-04-20T17:31:15.688Z,102897.61
2019-04-20T17:33:58.498Z,102896.70
2019-04-20T17:36:22.796Z,102900.75
2019-04-20T17:38:52.588Z,102890.66
2019-04-20T17:41:39.116Z,102894.39
2019-04-20T17:44:07.148Z,102885.70
2019-04-20T17:46:28.652Z,102891.95
2019-04-20T17:49:03.137Z,102878.09
2019-04-20T17:51:34.414Z,102876.64
2019-04-20T17:53:53.762Z,102877.86
2019-04-20T17:56:17.319Z,102881.86
2019-04-20T17:58:46.096Z,102884.87
2019-04-20T18:01:32.803Z,102879.48
2019-04-20T18:04:23.176Z,102874.55
2019-04-20T18:06:39.757Z,102880.58
2019-04-20T18:09:04.132Z,102876.52
2019-04-20T18:11:25.563Z,102885.76
2019-04-20T18:14:00.880Z,102881.81
2019-04-20T18:16:48.780Z,102875.72
2019-04-20T18:19:15.224Z,102875.13
2019-04-20T18:21:43.574Z,102878.71
2019-04-20T18:24:20.385Z,102873.02
2019-04-20T18:26:57.648Z,102869.80
2019-04-20T18:29:35.607Z,102870.07
2019-04-20T18:32:01.873Z,102866.10
2019-04-20T18:34:52.865Z,102865.64
2019-04-20T18:37:21.350Z,102867.65
2019-04-20T18:39:53.446Z,102870.42
2019-04-20T18:42:26.305Z,102871.05
2019-04-20T18:45:09.224Z,102861.94
2019-04-20T18:47:35.399Z,102859.30
2019-04-20T18:49:58.548Z,102860.55
2019-04-20T18:52:17.794Z,102862.16
2019-04-20T18:54:48.548Z,102853.53
2019-04-20T18:57:22.803Z,102859.66
2019-04-20T18:59:52.104Z,102852.16
2019-04-20T19:02:21.391Z,102856.06
2019-04-20T19:04:45.901Z,102849.28
2019-04-20T19:07:14.223Z,102849.00
2019-04-20T19:09:42.949Z,102849.62
2019-04-20T19:12:14.494Z,102848.95
2019-04-20T19:14:48.905Z,102842.53
2019-04-20T19:17:46.659Z,102845.59
2019-04-20T19:20:22.112Z,102839.05
2019-04-20T19:22:50.344Z,102835.66
2019-04-20T19:25:27.607Z,102834.85
2019-04-20T19:27:52.595Z,102837.20
2019-04-20T19:30:31.253Z,102837.02
2019-04-20T19:33:05.059Z,102845.04
2019-04-20T19:35:31.477Z,102847.67
2019-04-20T19:38:00.669Z,102850.22
2019-04-20T19:40:31.279Z,102846.84
2019-04-20T19:43:06.997Z,102848.15
2019-04-20T19:45:44.884Z,102852.97
2019-04-20T19:48:06.049Z,102850.55
2019-04-20T19:50:43.433Z,102845.52
2019-04-20T19:53:19.972Z,102842.67
2019-04-20T19:55:31.702Z,102838.59
2019-04-20T19:58:01.413Z,102845.66
2019-04-20T20:00:36.711Z,102835.00
2019-04-20T20:03:05.848Z,102831.33
2019-04-20T20:05:40.887Z,102835.94
2019-04-20T20:08:13.847Z,102831.02
2019-04-20T20:10:38.971Z,102827.25
2019-04-20T20:13:05.856Z,102832.66
2019-04-20T20:15:36.401Z,102824.29
2019-04-20T20:18:19.435Z,102817.63
2019-04-20T20:20:52.902Z,102821.66
2019-04-20T20:23:03.849Z,102824.88
2019-04-20T20:25:37.310Z,102822.23
2019-04-20T20:28:14.614Z,102821.29
2019-04-20T20:30:41.853Z,102816.59
2019-04-20T20:33:23.823Z,102822.07
2019-04-20T20:35:43.489Z,102822.65
2019-04-20T20:38:08.141Z,102819.91
2019-04-20T20:40:37.946Z,102817.39
2019-04-20T20:43:10.798Z,102815.91
2019-04-20T20:45:38.340Z,102813.45
2019-04-20T20:48:22.678Z,102809.73
2019-04-20T20:50:50.160Z,102817.93
2019-04-20T20:53:12.535Z,102822.91
2019-04-20T20:55:38.241Z,102822.59
2019-04-20T20:58:11.490Z,102825.28
2019-04-20T21:00:43.232Z,102826.86
2019-04-20T21:03:06.214Z,102822.44
2019-04-20T21:05:31.875Z,102816.87
2019-04-20T21:08:01.580Z,102818.82
2019-04-20T21:10:35.580Z,102822.38
2019-04-20T21:13:03.413Z,102827.63
2019-04-20T21:15:31.192Z,102824.07
2019-04-20T21:18:21.876Z,102822.45
2019-04-20T21:20:49.241Z,102813.04
2019-04-20T21:23:16.265Z,102815.38
2019-04-20T21:25:40.861Z,102808.26
2019-04-20T21:28:04.834Z,102804.66
2019-04-20T21:30:41.092Z,102802.42
2019-04-20T21:33:04.214Z,102802.72
2019-04-20T21:35:39.300Z,102801.41
2019-04-20T21:38:07.961Z,102798.23
2019-04-20T21:40:39.556Z,102800.30
2019-04-20T21:43:06.986Z,102810.33
2019-04-20T21:45:37.229Z,102805.31
2019-04-20T21:48:09.614Z,102804.59
2019-04-20T21:50:53.442Z,102808.64
2019-04-20T21:53:11.900Z,102812.02
2019-04-20T21:55:34.213Z,102811.86
2019-04-20T21:58:05.329Z,102808.61
2019-04-20T22:01:05.101Z,102805.10
2019-04-20T22:03:24.731Z,102805.50
2019-04-20T22:06:02.384Z,102796.28
2019-04-20T22:08:30.934Z,102796.37
2019-04-20T22:10:59.798Z,102791.02
2019-04-20T22:13:33.568Z,102790.71
2019-04-20T22:16:04.846Z,102790.45
2019-04-20T22:18:28.792Z,102784.78
2019-04-20T22:21:05.926Z,102781.41
2019-04-20T22:23:43.000Z,102779.43
2019-04-20T22:26:10.272Z,102772.94
2019-04-20T22:28:27.431Z,102773.95
2019-04-20T22:30:55.912Z,102765.91
2019-04-20T22:33:35.067Z,102763.85
2019-04-20T22:36:04.533Z,102762.09
2019-04-20T22:38:33.230Z,102763.05
2019-04-20T22:41:09.160Z,102758.18
2019-04-20T22:43:35.522Z,102762.56
2019-04-20T22:46:01.666Z,102760.50
2019-04-20T22:48:31.325Z,102753.78
2019-04-20T22:51:19.696Z,102755.54
2019-04-20T22:53:45.333Z,102747.47
2019-04-20T22:56:18.632Z,102744.05
2019-04-20T22:58:44.866Z,102742.02
2019-04-20T23:01:04.535Z,102741.96
2019-04-20T23:03:30.651Z,102738.75
2019-04-20T23:05:58.820Z,102729.70
2019-04-20T23:08:28.688Z,102728.11
2019-04-20T23:10:57.527Z,102732.88
2019-04-20T23:13:30.417Z,102731.84
2019-04-20T23:15:59.165Z,102726.50
2019-04-20T23:18:26.522Z,102724.73
2019-04-20T23:21:02.457Z,102727.66
2019-04-20T23:23:28.880Z,102731.10
2019-04-20T23:25:54.755Z,102725.44
2019-04-20T23:28:24.284Z,102722.77
2019-04-20T23:31:01.827Z,102722.58
2019-04-20T23:33:23.428Z,102720.10
2019-04-20T23:35:56.281Z,102713.71
2019-04-20T23:38:24.602Z,102714.27
2019-04-20T23:40:52.145Z,102719.70
2019-04-20T23:43:26.913Z,102711.44
2019-04-20T23:46:10.491Z,102707.21
2019-04-20T23:48:42.695Z,102708.20
2019-04-20T23:51:33.264Z,102704.45
2019-04-20T23:53:52.187Z,102703.09
2019-04-20T23:56:15.619Z,102707.01
2019-04-20T23:58:44.272Z,102705.14
